Nortonville, North Dakota
Current Conditions -  °F | °C
As of 7:56 PM on Friday 24 Oct 2014 (Local Time) from KJMS Reporting Station
Clear Clear  
Wind Chill: 54°   Ceiling: Unl
Heat Index: 54°   Visibility: 10mi
Dew Point: 34°   Wind: 12mph
Humidity: 47%   Direction: 290°WNW
Pressure: 29.92"   Gusts: NA
Location:  46.4882°N, 98.8135°W
Report Text: KJMS 250056Z AUTO 29010KT 10SM CLR 12/01 A2992 RMK AO2 SLP138 T01220011
Loading
Personal Weather Stations






























Interactive Weather Map
Tropical Storm Tracking
New forecast layout! Learn more

10-Day Weather Forecast

Advertisements
Track Severe Weather on mobile